createdAt,value
2018-09-09T00:00:07.888Z,1012.49
2018-09-09T00:01:07.926Z,1012.52
2018-09-09T00:02:07.947Z,1012.54
2018-09-09T00:03:07.974Z,1012.51
2018-09-09T00:04:08.001Z,1012.50
2018-09-09T00:05:08.033Z,1012.50
2018-09-09T00:06:08.059Z,1012.53
2018-09-09T00:07:08.093Z,1012.52
2018-09-09T00:08:08.116Z,1012.54
2018-09-09T00:09:08.144Z,1012.56
2018-09-09T00:10:08.172Z,1012.53
2018-09-09T00:11:08.202Z,1012.56
2018-09-09T00:12:08.232Z,1012.53
2018-09-09T00:13:08.259Z,1012.60
2018-09-09T00:14:08.289Z,1012.60
2018-09-09T00:15:08.319Z,1012.64
2018-09-09T00:16:08.347Z,1012.68
2018-09-09T00:17:08.375Z,1012.65
2018-09-09T00:18:08.403Z,1012.69
2018-09-09T00:19:08.430Z,1012.61
2018-09-09T00:20:08.461Z,1012.67
2018-09-09T00:21:08.490Z,1012.62
2018-09-09T00:22:08.517Z,1012.57
2018-09-09T00:23:08.546Z,1012.60
2018-09-09T00:24:08.578Z,1012.60
2018-09-09T00:25:08.605Z,1012.60
2018-09-09T00:26:08.631Z,1012.61
2018-09-09T00:27:08.661Z,1012.58
2018-09-09T00:28:08.687Z,1012.55
2018-09-09T00:29:08.714Z,1012.56
2018-09-09T00:30:08.743Z,1012.59
2018-09-09T00:31:08.776Z,1012.60
2018-09-09T00:32:08.803Z,1012.56
2018-09-09T00:33:08.834Z,1012.56
2018-09-09T00:34:08.857Z,1012.53
2018-09-09T00:35:08.888Z,1012.53
2018-09-09T00:36:08.917Z,1012.52
2018-09-09T00:37:08.943Z,1012.56
2018-09-09T00:38:08.974Z,1012.56
2018-09-09T00:39:09.000Z,1012.52
2018-09-09T00:40:09.028Z,1012.54
2018-09-09T00:41:09.056Z,1012.54
2018-09-09T00:42:09.088Z,1012.52
2018-09-09T00:43:09.116Z,1012.54
2018-09-09T00:44:09.141Z,1012.57
2018-09-09T00:45:09.174Z,1012.60
2018-09-09T00:46:09.202Z,1012.56
2018-09-09T00:47:09.231Z,1012.58
2018-09-09T00:48:09.257Z,1012.60
2018-09-09T00:49:09.283Z,1012.58
2018-09-09T00:50:09.312Z,1012.59
2018-09-09T00:51:09.343Z,1012.56
2018-09-09T00:53:09.406Z,1012.53
2018-09-09T00:54:09.429Z,1012.55
2018-09-09T00:55:09.455Z,1012.51
2018-09-09T00:56:09.482Z,1012.51
2018-09-09T00:57:09.514Z,1012.54
2018-09-09T00:58:09.541Z,1012.54
2018-09-09T00:59:09.571Z,1012.58
2018-09-09T01:00:09.596Z,1012.58
2018-09-09T01:01:09.630Z,1012.55
2018-09-09T01:02:09.661Z,1012.58
2018-09-09T01:03:09.685Z,1012.60
2018-09-09T01:04:09.711Z,1012.58
2018-09-09T01:05:09.744Z,1012.57
2018-09-09T01:06:09.770Z,1012.58
2018-09-09T01:07:09.799Z,1012.60
2018-09-09T01:08:09.826Z,1012.59
2018-09-09T01:09:09.852Z,1012.61
2018-09-09T01:10:09.884Z,1012.56
2018-09-09T01:11:09.913Z,1012.57
2018-09-09T01:12:09.943Z,1012.55
2018-09-09T01:13:09.969Z,1012.56
2018-09-09T01:14:09.998Z,1012.56
2018-09-09T01:15:10.025Z,1012.56
2018-09-09T01:16:10.056Z,1012.59
2018-09-09T01:17:10.080Z,1012.55
2018-09-09T01:18:10.111Z,1012.53
2018-09-09T01:19:10.139Z,1012.51
2018-09-09T01:20:10.168Z,1012.50
2018-09-09T01:21:10.194Z,1012.50
2018-09-09T01:22:10.222Z,1012.50
2018-09-09T01:23:10.254Z,1012.49
2018-09-09T01:24:10.282Z,1012.52
2018-09-09T01:25:10.311Z,1012.52
2018-09-09T01:26:10.347Z,1012.51
2018-09-09T01:27:10.367Z,1012.53
2018-09-09T01:28:10.396Z,1012.49
2018-09-09T01:29:10.423Z,1012.50
2018-09-09T01:30:10.454Z,1012.54
2018-09-09T01:31:10.482Z,1012.50
2018-09-09T01:32:10.508Z,1012.49
2018-09-09T01:33:10.536Z,1012.52
2018-09-09T01:34:10.565Z,1012.51
2018-09-09T01:35:10.596Z,1012.48
2018-09-09T01:36:10.625Z,1012.44
2018-09-09T01:37:10.654Z,1012.46
2018-09-09T01:38:10.678Z,1012.42
2018-09-09T01:39:10.706Z,1012.41
2018-09-09T01:40:10.734Z,1012.43
2018-09-09T01:41:10.770Z,1012.47
2018-09-09T01:42:10.795Z,1012.43
2018-09-09T01:43:10.824Z,1012.49
2018-09-09T01:44:10.849Z,1012.42
2018-09-09T01:45:10.881Z,1012.52
2018-09-09T01:46:10.907Z,1012.48
2018-09-09T01:47:10.937Z,1012.49
2018-09-09T01:48:10.964Z,1012.51
2018-09-09T01:49:10.992Z,1012.45
2018-09-09T01:50:11.021Z,1012.49
2018-09-09T01:51:11.049Z,1012.51
2018-09-09T01:52:11.077Z,1012.53
2018-09-09T01:53:11.107Z,1012.53
2018-09-09T01:54:11.132Z,1012.55
2018-09-09T01:55:11.165Z,1012.49
2018-09-09T01:56:11.202Z,1012.50
2018-09-09T01:57:11.218Z,1012.49
2018-09-09T01:58:11.248Z,1012.49
2018-09-09T01:59:11.278Z,1012.46
2018-09-09T02:00:11.304Z,1012.45
2018-09-09T02:01:11.332Z,1012.41
2018-09-09T02:02:11.360Z,1012.43
2018-09-09T02:03:11.389Z,1012.43
2018-09-09T02:04:11.419Z,1012.44
2018-09-09T02:05:11.444Z,1012.48
2018-09-09T02:06:11.477Z,1012.44
2018-09-09T02:07:11.504Z,1012.43
2018-09-09T02:08:11.532Z,1012.47
2018-09-09T02:09:11.563Z,1012.48
2018-09-09T02:10:11.588Z,1012.43
2018-09-09T02:11:11.618Z,1012.49
2018-09-09T02:12:11.648Z,1012.49
2018-09-09T02:13:11.671Z,1012.53
2018-09-09T02:14:11.702Z,1012.56
2018-09-09T02:15:11.731Z,1012.53
2018-09-09T02:16:11.759Z,1012.57
2018-09-09T02:17:11.788Z,1012.54
2018-09-09T02:18:11.816Z,1012.49
2018-09-09T02:19:11.842Z,1012.52
2018-09-09T02:20:11.870Z,1012.50
2018-09-09T02:21:11.899Z,1012.50
2018-09-09T02:22:11.930Z,1012.44
2018-09-09T02:23:11.958Z,1012.44
2018-09-09T02:24:11.987Z,1012.45
2018-09-09T02:25:12.012Z,1012.50
2018-09-09T02:26:12.041Z,1012.46
2018-09-09T02:27:12.071Z,1012.49
2018-09-09T02:28:12.099Z,1012.52
2018-09-09T02:29:12.128Z,1012.47
2018-09-09T02:30:12.160Z,1012.49
2018-09-09T02:31:12.184Z,1012.50
2018-09-09T02:32:12.213Z,1012.53
2018-09-09T02:33:12.242Z,1012.51
2018-09-09T02:34:12.279Z,1012.54
2018-09-09T02:35:12.297Z,1012.55
2018-09-09T02:36:12.323Z,1012.53
2018-09-09T02:37:12.358Z,1012.56
2018-09-09T02:38:12.381Z,1012.55
2018-09-09T02:39:12.412Z,1012.58
2018-09-09T02:40:12.441Z,1012.58
2018-09-09T02:41:12.520Z,1012.59
2018-09-09T02:42:12.496Z,1012.57
2018-09-09T02:43:12.524Z,1012.60
2018-09-09T02:44:12.552Z,1012.56
2018-09-09T02:45:12.583Z,1012.57
2018-09-09T02:46:12.610Z,1012.58
2018-09-09T02:47:12.638Z,1012.51
2018-09-09T02:48:12.664Z,1012.53
2018-09-09T02:49:12.694Z,1012.51
2018-09-09T02:50:12.724Z,1012.53
2018-09-09T02:51:12.755Z,1012.53
2018-09-09T02:52:12.779Z,1012.49
2018-09-09T02:53:12.806Z,1012.42
2018-09-09T02:54:12.835Z,1012.47
2018-09-09T02:55:12.864Z,1012.40
2018-09-09T02:56:12.889Z,1012.46
2018-09-09T02:57:12.924Z,1012.47
2018-09-09T02:58:12.947Z,1012.43
2018-09-09T02:59:12.977Z,1012.45
2018-09-09T03:00:13.002Z,1012.49
2018-09-09T03:01:13.032Z,1012.47
2018-09-09T03:02:13.064Z,1012.51
2018-09-09T03:03:13.088Z,1012.50
2018-09-09T03:04:13.117Z,1012.53
2018-09-09T03:05:13.146Z,1012.48
2018-09-09T03:06:13.173Z,1012.55
2018-09-09T03:07:13.201Z,1012.53
2018-09-09T03:08:13.227Z,1012.54
2018-09-09T03:09:13.262Z,1012.55
2018-09-09T03:10:13.285Z,1012.54
2018-09-09T03:11:13.312Z,1012.59
2018-09-09T03:12:13.342Z,1012.63
2018-09-09T03:13:13.367Z,1012.57
2018-09-09T03:14:13.401Z,1012.54
2018-09-09T03:15:13.427Z,1012.52
2018-09-09T03:16:13.453Z,1012.56
2018-09-09T03:17:13.484Z,1012.53
2018-09-09T03:18:13.509Z,1012.59
2018-09-09T03:19:13.536Z,1012.57
2018-09-09T03:20:13.570Z,1012.59
2018-09-09T03:21:13.597Z,1012.65
2018-09-09T03:22:13.622Z,1012.59
2018-09-09T03:23:13.650Z,1012.60
2018-09-09T03:24:13.680Z,1012.59
2018-09-09T03:25:13.704Z,1012.56
2018-09-09T03:26:13.734Z,1012.58
2018-09-09T03:27:13.766Z,1012.55
2018-09-09T03:28:13.792Z,1012.59
2018-09-09T03:29:13.823Z,1012.59
2018-09-09T03:30:13.848Z,1012.58
2018-09-09T03:31:13.876Z,1012.58
2018-09-09T03:32:13.905Z,1012.52
2018-09-09T03:33:13.933Z,1012.47
2018-09-09T03:34:13.961Z,1012.40
2018-09-09T03:35:13.987Z,1012.38
2018-09-09T03:36:14.021Z,1012.32
2018-09-09T03:37:14.045Z,1012.28
2018-09-09T03:38:14.074Z,1012.32
2018-09-09T03:39:14.101Z,1012.26
2018-09-09T03:40:14.130Z,1012.31
2018-09-09T03:41:14.157Z,1012.29
2018-09-09T03:42:14.187Z,1012.29
2018-09-09T03:43:14.213Z,1012.30
2018-09-09T03:44:14.242Z,1012.32
2018-09-09T03:45:14.269Z,1012.33
2018-09-09T03:46:14.300Z,1012.40
2018-09-09T03:47:14.325Z,1012.40
2018-09-09T03:48:14.354Z,1012.34
2018-09-09T03:49:14.383Z,1012.38
2018-09-09T03:50:14.410Z,1012.33
2018-09-09T03:51:14.440Z,1012.36
2018-09-09T03:52:14.468Z,1012.35
2018-09-09T03:53:14.495Z,1012.37
2018-09-09T03:54:14.526Z,1012.43
2018-09-09T03:55:14.550Z,1012.41
2018-09-09T03:56:14.578Z,1012.40
2018-09-09T03:57:14.609Z,1012.41
2018-09-09T03:58:14.634Z,1012.43
2018-09-09T03:59:14.663Z,1012.45
2018-09-09T04:00:14.693Z,1012.50
2018-09-09T04:01:14.721Z,1012.48
2018-09-09T04:02:14.749Z,1012.49
2018-09-09T04:03:14.778Z,1012.48
2018-09-09T04:04:14.804Z,1012.46
2018-09-09T04:05:14.832Z,1012.50
2018-09-09T04:06:14.863Z,1012.49
2018-09-09T04:07:14.894Z,1012.51
2018-09-09T04:08:14.917Z,1012.53
2018-09-09T04:09:14.947Z,1012.50
2018-09-09T04:10:15.022Z,1012.51
2018-09-09T04:11:15.000Z,1012.49
2018-09-09T04:12:15.028Z,1012.55
2018-09-09T04:13:15.059Z,1012.58
2018-09-09T04:14:15.085Z,1012.56
2018-09-09T04:15:15.113Z,1012.61
2018-09-09T04:16:15.140Z,1012.55
2018-09-09T04:17:15.169Z,1012.55
2018-09-09T04:18:15.202Z,1012.56
2018-09-09T04:19:15.231Z,1012.60
2018-09-09T04:20:15.257Z,1012.58
2018-09-09T04:21:15.284Z,1012.60
2018-09-09T04:22:15.313Z,1012.58
2018-09-09T04:23:15.337Z,1012.59
2018-09-09T04:24:15.365Z,1012.60
2018-09-09T04:25:15.410Z,1012.58
2018-09-09T04:26:15.425Z,1012.62
2018-09-09T04:27:15.450Z,1012.64
2018-09-09T04:28:15.478Z,1012.56
2018-09-09T04:29:15.507Z,1012.56
2018-09-09T04:30:15.537Z,1012.54
2018-09-09T04:31:15.582Z,1012.54
2018-09-09T04:32:15.596Z,1012.52
2018-09-09T04:33:15.621Z,1012.54
2018-09-09T04:34:15.649Z,1012.52
2018-09-09T04:35:15.675Z,1012.51
2018-09-09T04:36:15.703Z,1012.52
2018-09-09T04:37:15.733Z,1012.51
2018-09-09T04:38:15.760Z,1012.53
2018-09-09T04:39:15.787Z,1012.55
2018-09-09T04:40:15.814Z,1012.52
2018-09-09T04:41:15.848Z,1012.54
2018-09-09T04:42:15.875Z,1012.49
2018-09-09T04:43:15.904Z,1012.52
2018-09-09T04:44:15.928Z,1012.50
2018-09-09T04:45:15.965Z,1012.55
2018-09-09T04:46:15.991Z,1012.59
2018-09-09T04:47:16.016Z,1012.59
2018-09-09T04:48:16.044Z,1012.60
2018-09-09T04:49:16.070Z,1012.61
2018-09-09T04:50:16.098Z,1012.64
2018-09-09T04:51:16.130Z,1012.61
2018-09-09T04:52:16.154Z,1012.60
2018-09-09T04:53:16.187Z,1012.56
2018-09-09T04:54:16.213Z,1012.59
2018-09-09T04:55:16.251Z,1012.60
2018-09-09T04:56:16.268Z,1012.57
2018-09-09T04:57:16.294Z,1012.61
2018-09-09T04:58:16.323Z,1012.60
2018-09-09T04:59:16.355Z,1012.64
2018-09-09T05:00:16.378Z,1012.58
2018-09-09T05:01:16.554Z,1012.57
2018-09-09T05:02:16.436Z,1012.63
2018-09-09T05:03:16.463Z,1012.61
2018-09-09T05:04:16.494Z,1012.64
2018-09-09T05:05:16.520Z,1012.66
2018-09-09T05:06:16.549Z,1012.70
2018-09-09T05:07:16.590Z,1012.71
2018-09-09T05:08:16.604Z,1012.71
2018-09-09T05:09:16.634Z,1012.70
2018-09-09T05:10:16.661Z,1012.73
2018-09-09T05:11:16.689Z,1012.74
2018-09-09T05:12:16.720Z,1012.78
2018-09-09T05:13:16.747Z,1012.72
2018-09-09T05:14:16.775Z,1012.79
2018-09-09T05:15:16.801Z,1012.74
2018-09-09T05:16:16.827Z,1012.76
2018-09-09T05:17:16.855Z,1012.80
2018-09-09T05:18:16.886Z,1012.76
2018-09-09T05:19:16.914Z,1012.80
2018-09-09T05:20:16.940Z,1012.81
2018-09-09T05:21:16.970Z,1012.83
2018-09-09T05:22:17.000Z,1012.87
2018-09-09T05:23:17.028Z,1012.89
2018-09-09T05:24:17.056Z,1012.87
2018-09-09T05:25:17.083Z,1012.83
2018-09-09T05:26:17.112Z,1012.88
2018-09-09T05:27:17.141Z,1012.94
2018-09-09T05:28:17.166Z,1012.96
2018-09-09T05:29:17.196Z,1012.95
2018-09-09T05:30:17.223Z,1012.99
2018-09-09T05:31:17.256Z,1012.99
2018-09-09T05:32:17.282Z,1012.98
2018-09-09T05:33:17.309Z,1012.99
2018-09-09T05:34:17.334Z,1012.99
2018-09-09T05:35:17.368Z,1012.99
2018-09-09T05:36:17.393Z,1013.02
2018-09-09T05:37:17.422Z,1012.98
2018-09-09T05:38:17.450Z,1012.97
2018-09-09T05:39:17.478Z,1012.98
2018-09-09T05:40:17.503Z,1013.03
2018-09-09T05:41:17.537Z,1012.97
2018-09-09T05:42:17.621Z,1012.97
2018-09-09T05:43:17.588Z,1012.96
2018-09-09T05:44:17.618Z,1012.99
2018-09-09T05:45:17.645Z,1012.96
2018-09-09T05:46:17.675Z,1013.01
2018-09-09T05:47:17.703Z,1013.02
2018-09-09T05:48:17.730Z,1013.00
2018-09-09T05:49:17.759Z,1013.06
2018-09-09T05:50:17.838Z,1013.06
2018-09-09T05:51:17.817Z,1013.04
2018-09-09T05:52:17.843Z,1013.04
2018-09-09T05:53:17.871Z,1013.03
2018-09-09T05:54:17.901Z,1013.09
2018-09-09T05:55:17.926Z,1013.08
2018-09-09T05:56:17.954Z,1013.05
2018-09-09T05:57:17.985Z,1013.11
2018-09-09T05:58:18.013Z,1013.11
2018-09-09T05:59:18.042Z,1013.12
2018-09-09T06:00:18.070Z,1013.09
2018-09-09T06:01:18.098Z,1013.07
2018-09-09T06:02:18.123Z,1013.03
2018-09-09T06:03:18.152Z,1013.06
2018-09-09T06:04:18.182Z,1013.07
2018-09-09T06:05:18.210Z,1013.05
2018-09-09T06:06:18.239Z,1013.03
2018-09-09T06:07:18.267Z,1013.03
2018-09-09T06:08:18.292Z,1013.07
2018-09-09T06:09:18.323Z,1013.05
2018-09-09T06:10:18.350Z,1013.06
2018-09-09T06:11:18.381Z,1013.07
2018-09-09T06:12:18.407Z,1013.08
2018-09-09T06:13:18.434Z,1013.07
2018-09-09T06:14:18.463Z,1013.09
2018-09-09T06:15:18.492Z,1013.09
2018-09-09T06:16:18.519Z,1013.10
2018-09-09T06:17:18.550Z,1013.07
2018-09-09T06:18:18.578Z,1013.06
2018-09-09T06:19:18.605Z,1013.08
2018-09-09T06:20:18.633Z,1013.16
2018-09-09T06:21:18.660Z,1013.21
2018-09-09T06:22:18.692Z,1013.26
2018-09-09T06:23:18.719Z,1013.28
2018-09-09T06:24:18.746Z,1013.34
2018-09-09T06:25:18.788Z,1013.34
2018-09-09T06:26:18.804Z,1013.41
2018-09-09T06:27:18.834Z,1013.33
2018-09-09T06:28:18.881Z,1013.31
2018-09-09T06:29:18.887Z,1013.30
2018-09-09T06:30:18.916Z,1013.27
2018-09-09T06:31:18.949Z,1013.33
2018-09-09T06:32:18.972Z,1013.31
2018-09-09T06:33:19.008Z,1013.31
2018-09-09T06:34:19.033Z,1013.34
2018-09-09T06:35:19.079Z,1013.37
2018-09-09T06:36:19.086Z,1013.36
2018-09-09T06:37:19.117Z,1013.34
2018-09-09T06:38:19.146Z,1013.35
2018-09-09T06:39:19.204Z,1013.36
2018-09-09T06:40:19.204Z,1013.35
2018-09-09T06:41:19.231Z,1013.39
2018-09-09T06:42:19.262Z,1013.45
2018-09-09T06:43:19.288Z,1013.40
2018-09-09T06:44:19.317Z,1013.41
2018-09-09T06:45:19.345Z,1013.42
2018-09-09T06:46:19.415Z,1013.47
2018-09-09T06:47:19.409Z,1013.48
2018-09-09T06:48:19.434Z,1013.51
2018-09-09T06:49:19.463Z,1013.60
2018-09-09T06:50:19.493Z,1013.76
2018-09-09T06:51:19.583Z,1014.13
2018-09-09T06:52:19.866Z,1014.68
2018-09-09T06:53:19.577Z,1015.18
2018-09-09T06:54:19.607Z,1014.24
2018-09-09T06:55:19.640Z,1016.73
2018-09-09T06:56:19.663Z,1017.51
2018-09-09T06:57:19.693Z,1015.27
2018-09-09T06:58:19.723Z,1015.59
2018-09-09T06:59:19.753Z,1015.15
2018-09-09T07:00:19.778Z,1016.38
2018-09-09T07:01:19.807Z,1016.78
2018-09-09T07:02:19.864Z,1014.30
2018-09-09T07:03:19.867Z,1014.38
2018-09-09T07:04:19.898Z,1013.98
2018-09-09T07:05:22.551Z,1014.75
2018-09-09T07:06:19.957Z,1015.93
2018-09-09T07:07:19.985Z,1016.57
2018-09-09T07:08:20.016Z,1014.63
2018-09-09T07:09:20.048Z,1013.78
2018-09-09T07:10:20.076Z,1016.53
2018-09-09T07:11:20.240Z,1015.28
2018-09-09T07:12:20.139Z,1016.03
2018-09-09T07:13:20.170Z,1014.94
2018-09-09T07:14:20.198Z,1015.55
2018-09-09T07:15:20.233Z,1016.41
2018-09-09T07:16:20.259Z,1013.73
2018-09-09T07:17:20.292Z,1013.90
2018-09-09T07:18:20.320Z,1013.81
2018-09-09T07:19:20.356Z,1014.23
2018-09-09T07:20:20.383Z,1014.30
2018-09-09T07:21:20.415Z,1014.52
2018-09-09T07:22:20.446Z,1014.65
2018-09-09T07:23:20.477Z,1015.93
2018-09-09T07:24:20.512Z,1014.25
2018-09-09T07:25:20.538Z,1014.13
2018-09-09T07:26:20.572Z,1013.97
2018-09-09T07:27:20.603Z,1013.81
2018-09-09T07:28:20.637Z,1013.77
2018-09-09T07:29:20.666Z,1013.75
2018-09-09T07:30:20.700Z,1013.83
2018-09-09T07:31:20.730Z,1013.78
2018-09-09T07:32:20.767Z,1013.74
2018-09-09T07:33:20.795Z,1013.79
2018-09-09T07:34:21.015Z,1013.75
2018-09-09T07:35:20.856Z,1013.74
2018-09-09T07:36:20.888Z,1013.72
2018-09-09T07:37:20.976Z,1013.76
2018-09-09T07:38:20.951Z,1013.70
2018-09-09T07:39:20.984Z,1013.72
2018-09-09T07:40:21.016Z,1013.70
2018-09-09T07:41:21.046Z,1013.70
2018-09-09T07:42:21.075Z,1013.71
2018-09-09T07:43:21.119Z,1013.69
2018-09-09T07:44:21.137Z,1013.65
2018-09-09T07:45:21.170Z,1013.63
2018-09-09T07:46:21.261Z,1013.58
2018-09-09T07:47:21.229Z,1013.55
2018-09-09T07:48:21.260Z,1013.58
2018-09-09T07:49:21.313Z,1013.63
2018-09-09T07:50:21.427Z,1013.62
2018-09-09T07:51:21.385Z,1013.61
2018-09-09T07:52:21.388Z,1013.59
2018-09-09T07:53:21.417Z,1013.63
2018-09-09T07:54:21.446Z,1013.60
2018-09-09T07:55:21.476Z,1013.61
2018-09-09T07:56:21.510Z,1013.65
2018-09-09T07:57:21.538Z,1013.63
2018-09-09T07:58:21.570Z,1013.60
2018-09-09T07:59:21.599Z,1013.60
2018-09-09T08:00:21.651Z,1013.60
2018-09-09T08:01:21.661Z,1013.68
2018-09-09T08:03:05.657Z,1013.63
2018-09-09T08:04:04.276Z,1013.61
2018-09-09T08:05:04.306Z,1013.65
2018-09-09T08:06:04.335Z,1013.64
2018-09-09T08:07:04.364Z,1013.66
2018-09-09T08:08:04.394Z,1013.67
2018-09-09T08:09:04.424Z,1013.65
2018-09-09T08:10:04.452Z,1013.68
2018-09-09T08:11:04.486Z,1013.70
2018-09-09T08:12:04.546Z,1013.71
2018-09-09T08:13:04.546Z,1013.71
2018-09-09T08:14:04.574Z,1013.76
2018-09-09T08:15:04.607Z,1013.81
2018-09-09T08:16:04.637Z,1013.81
2018-09-09T08:17:04.667Z,1013.81
2018-09-09T08:18:04.694Z,1013.79
2018-09-09T08:19:04.728Z,1013.75
2018-09-09T08:20:04.757Z,1013.73
2018-09-09T08:21:04.785Z,1013.64
2018-09-09T08:22:04.821Z,1013.63
2018-09-09T08:23:04.845Z,1013.62
2018-09-09T08:24:04.877Z,1013.52
2018-09-09T08:25:04.908Z,1013.50
2018-09-09T08:26:04.937Z,1013.45
2018-09-09T08:27:04.965Z,1013.42
2018-09-09T08:28:04.997Z,1013.50
2018-09-09T08:29:05.030Z,1013.58
2018-09-09T08:30:05.056Z,1013.61
2018-09-09T08:31:05.087Z,1013.55
2018-09-09T08:32:05.120Z,1013.62
2018-09-09T08:33:05.144Z,1013.66
2018-09-09T08:34:05.174Z,1013.62
2018-09-09T08:35:05.207Z,1013.62
2018-09-09T08:36:05.236Z,1013.63
2018-09-09T08:37:05.264Z,1013.61
2018-09-09T08:38:05.296Z,1013.63
2018-09-09T08:39:05.327Z,1013.63
2018-09-09T08:40:05.357Z,1013.70
2018-09-09T08:41:05.384Z,1013.72
2018-09-09T08:42:05.418Z,1013.74
2018-09-09T08:43:05.450Z,1013.76
2018-09-09T08:44:05.477Z,1013.80
2018-09-09T08:45:05.508Z,1013.88
2018-09-09T08:46:05.537Z,1013.88
2018-09-09T08:47:05.565Z,1014.03
2018-09-09T08:48:05.597Z,1014.00
2018-09-09T08:49:05.626Z,1013.98
2018-09-09T08:50:05.655Z,1014.00
2018-09-09T08:51:05.689Z,1013.99
2018-09-09T08:52:05.849Z,1014.00
2018-09-09T08:53:05.751Z,1014.04
2018-09-09T08:54:05.781Z,1014.04
2018-09-09T08:55:06.216Z,1014.13
2018-09-09T08:56:05.840Z,1014.21
2018-09-09T08:57:05.874Z,1014.03
2018-09-09T08:58:05.902Z,1013.89
2018-09-09T08:59:05.942Z,1013.99
2018-09-09T09:00:05.967Z,1014.23
2018-09-09T09:01:05.998Z,1014.00
2018-09-09T09:02:06.027Z,1013.95
2018-09-09T09:03:06.058Z,1014.03
2018-09-09T09:04:06.093Z,1013.97
2018-09-09T09:06:36.243Z,1013.98
2018-09-09T09:07:36.318Z,1014.03
2018-09-09T09:08:36.307Z,1014.03
2018-09-09T09:09:36.338Z,1013.98
2018-09-09T09:10:36.380Z,1013.96
2018-09-09T09:12:36.437Z,1013.93
2018-09-09T09:13:36.466Z,1014.00
2018-09-09T09:14:39.176Z,1014.04
2018-09-09T09:15:37.142Z,1013.90
2018-09-09T09:16:36.562Z,1013.88
2018-09-09T09:17:36.595Z,1013.86
2018-09-09T09:18:36.657Z,1013.80
2018-09-09T09:19:36.663Z,1013.89
2018-09-09T09:20:36.705Z,1013.83
2018-09-09T09:21:36.729Z,1013.94
2018-09-09T09:22:36.759Z,1013.96
2018-09-09T09:23:36.805Z,1013.96
2018-09-09T09:24:36.830Z,1013.89
2018-09-09T09:25:36.857Z,1013.89
2018-09-09T09:26:36.891Z,1013.81
2018-09-09T09:27:36.925Z,1013.99
2018-09-09T09:28:36.958Z,1014.04
2018-09-09T09:30:19.860Z,1014.02
2018-09-09T09:31:19.591Z,1014.07
2018-09-09T09:32:19.613Z,1013.92
2018-09-09T09:33:19.645Z,1014.10
2018-09-09T09:34:19.677Z,1014.30
2018-09-09T09:35:19.710Z,1013.97
2018-09-09T09:36:19.746Z,1013.96
2018-09-09T09:37:20.385Z,1014.07
2018-09-09T09:38:19.815Z,1014.11
2018-09-09T09:39:19.848Z,1014.27
2018-09-09T09:40:19.879Z,1013.94
2018-09-09T09:41:19.911Z,1014.03
2018-09-09T09:42:19.947Z,1013.96
2018-09-09T09:43:19.981Z,1013.98
2018-09-09T09:44:20.015Z,1014.03
2018-09-09T09:45:20.046Z,1014.03
2018-09-09T09:46:20.082Z,1014.03
2018-09-09T09:47:20.116Z,1014.01
2018-09-09T09:48:20.148Z,1014.02
2018-09-09T09:49:20.181Z,1014.10
2018-09-09T09:50:20.214Z,1014.24
2018-09-09T09:51:20.252Z,1014.02
2018-09-09T09:52:20.287Z,1013.98
2018-09-09T09:53:20.417Z,1014.01
2018-09-09T09:54:20.350Z,1013.93
2018-09-09T09:55:20.416Z,1013.93
2018-09-09T09:56:20.419Z,1013.94
2018-09-09T09:57:20.454Z,1013.97
2018-09-09T09:58:20.487Z,1013.91
2018-09-09T09:59:20.521Z,1013.96
2018-09-09T10:00:20.553Z,1014.01
2018-09-09T10:01:20.586Z,1013.99
2018-09-09T10:02:20.620Z,1013.96
2018-09-09T10:03:20.659Z,1013.87
2018-09-09T10:04:20.685Z,1013.88
2018-09-09T10:05:20.721Z,1013.85
2018-09-09T10:06:20.754Z,1013.84
2018-09-09T10:07:20.788Z,1013.86
2018-09-09T10:08:20.831Z,1013.82
2018-09-09T10:09:20.856Z,1013.87
2018-09-09T10:10:20.887Z,1013.94
2018-09-09T10:11:20.921Z,1013.84
2018-09-09T10:12:20.954Z,1013.82
2018-09-09T10:13:20.987Z,1013.87
2018-09-09T10:14:21.018Z,1014.19
2018-09-09T10:15:21.051Z,1014.02
2018-09-09T10:16:21.085Z,1014.03
2018-09-09T10:17:21.116Z,1014.14
2018-09-09T10:18:21.154Z,1014.14
2018-09-09T10:19:21.183Z,1014.03
2018-09-09T10:20:21.220Z,1014.10
2018-09-09T10:21:21.252Z,1014.05
2018-09-09T10:22:21.287Z,1014.05
2018-09-09T10:23:21.317Z,1014.08
2018-09-09T10:24:21.353Z,1013.99
2018-09-09T10:25:21.391Z,1013.91
2018-09-09T10:26:21.419Z,1013.92
2018-09-09T10:27:21.452Z,1013.93
2018-09-09T10:28:21.485Z,1013.86
2018-09-09T10:29:21.516Z,1013.86
2018-09-09T10:30:21.549Z,1013.83
2018-09-09T10:31:21.585Z,1013.91
2018-09-09T10:32:21.619Z,1013.93
2018-09-09T10:33:21.649Z,1014.27
2018-09-09T10:34:21.685Z,1014.22
2018-09-09T10:35:21.716Z,1014.06
2018-09-09T10:36:21.752Z,1014.14
2018-09-09T10:37:21.788Z,1014.42
2018-09-09T10:38:21.821Z,1014.33
2018-09-09T10:39:21.856Z,1014.58
2018-09-09T10:40:21.890Z,1014.57
2018-09-09T10:41:21.924Z,1014.45
2018-09-09T10:42:21.958Z,1014.25
2018-09-09T10:43:21.995Z,1014.24
2018-09-09T10:44:22.027Z,1014.37
2018-09-09T10:45:22.060Z,1014.56
2018-09-09T10:46:22.190Z,1014.50
2018-09-09T10:47:22.145Z,1014.51
2018-09-09T10:48:22.168Z,1014.32
2018-09-09T10:49:22.202Z,1014.52
2018-09-09T10:50:22.239Z,1014.45
2018-09-09T10:51:22.277Z,1014.58
2018-09-09T10:52:22.314Z,1014.75
2018-09-09T10:53:22.347Z,1014.80
2018-09-09T10:54:22.386Z,1014.73
2018-09-09T10:56:09.990Z,1014.59
2018-09-09T10:57:10.030Z,1014.65
2018-09-09T10:58:10.066Z,1014.80
2018-09-09T10:59:10.102Z,1014.61
2018-09-09T11:00:10.137Z,1014.77
2018-09-09T11:01:10.175Z,1014.57
2018-09-09T11:02:10.211Z,1014.61
2018-09-09T11:03:10.249Z,1014.31
2018-09-09T11:04:10.291Z,1014.20
2018-09-09T11:05:10.325Z,1014.10
2018-09-09T11:06:10.361Z,1014.18
2018-09-09T11:07:10.399Z,1014.20
2018-09-09T11:08:10.440Z,1014.31
2018-09-09T11:09:10.478Z,1014.29
2018-09-09T11:10:10.514Z,1014.23
2018-09-09T11:11:10.550Z,1014.31
2018-09-09T11:12:10.590Z,1014.34
2018-09-09T11:13:10.627Z,1014.24
2018-09-09T11:14:10.661Z,1014.27
2018-09-09T11:15:10.699Z,1014.60
2018-09-09T11:16:10.736Z,1014.43
2018-09-09T11:17:10.775Z,1014.48
2018-09-09T11:18:10.811Z,1014.24
2018-09-09T11:19:10.850Z,1014.30
2018-09-09T11:20:10.883Z,1014.08
2018-09-09T11:21:10.923Z,1014.05
2018-09-09T11:22:10.957Z,1014.08
2018-09-09T11:23:10.996Z,1014.03
2018-09-09T11:24:11.164Z,1014.02
2018-09-09T11:25:11.069Z,1014.27
2018-09-09T11:26:11.101Z,1014.21
2018-09-09T11:27:11.138Z,1014.32
2018-09-09T11:28:11.176Z,1014.22
2018-09-09T11:29:11.213Z,1014.24
2018-09-09T11:30:11.247Z,1014.08
2018-09-09T11:31:11.297Z,1014.20
2018-09-09T11:32:53.875Z,1014.12
2018-09-09T11:33:53.913Z,1014.13
2018-09-09T11:34:53.948Z,1014.61
2018-09-09T11:35:53.983Z,1014.13
2018-09-09T11:36:54.018Z,1014.28
2018-09-09T11:37:54.052Z,1014.04
2018-09-09T11:38:54.088Z,1013.96
2018-09-09T11:39:54.121Z,1013.92
2018-09-09T11:40:54.162Z,1013.87
2018-09-09T11:42:36.752Z,1013.85
2018-09-09T11:43:36.789Z,1013.83
2018-09-09T11:44:36.825Z,1013.82
2018-09-09T11:45:36.861Z,1013.86
2018-09-09T11:46:36.893Z,1013.81
2018-09-09T11:47:36.928Z,1013.82
2018-09-09T11:48:36.964Z,1013.92
2018-09-09T11:49:36.996Z,1014.64
2018-09-09T11:50:37.035Z,1013.92
2018-09-09T11:51:37.068Z,1013.84
2018-09-09T11:52:37.103Z,1013.86
2018-09-09T11:53:37.142Z,1013.95
2018-09-09T11:54:37.175Z,1014.77
2018-09-09T11:55:37.210Z,1014.75
2018-09-09T11:56:37.245Z,1014.61
2018-09-09T11:57:37.277Z,1014.75
2018-09-09T11:58:37.315Z,1014.71
2018-09-09T11:59:37.350Z,1014.57
2018-09-09T12:00:37.383Z,1014.53
2018-09-09T12:01:37.418Z,1014.56
2018-09-09T12:02:37.453Z,1014.67
2018-09-09T12:03:37.492Z,1014.69
2018-09-09T12:04:37.528Z,1014.57
2018-09-09T12:05:37.563Z,1014.35
2018-09-09T12:06:37.596Z,1014.61
2018-09-09T12:07:37.711Z,1014.54
2018-09-09T12:08:37.674Z,1014.50
2018-09-09T12:09:37.710Z,1014.52
2018-09-09T12:10:37.749Z,1014.54
2018-09-09T12:11:37.784Z,1014.29
2018-09-09T12:12:37.820Z,1014.67